sensor_id;sensor_type;location;lat;lon;timestamp;pressure;altitude;pressure_sealevel;temperature;humidity
6208;BME280;3137;51.550;7.060;2023-01-01T00:02:02;100608.81;;;16.86;44.74
6208;BME280;3137;51.550;7.060;2023-01-01T00:04:29;100611.75;;;16.93;45.34
6208;BME280;3137;51.550;7.060;2023-01-01T00:06:57;100611.81;;;17.01;43.95
6208;BME280;3137;51.550;7.060;2023-01-01T00:09:23;100617.75;;;17.05;43.94
6208;BME280;3137;51.550;7.060;2023-01-01T00:12:08;100631.06;;;16.98;43.80
6208;BME280;3137;51.550;7.060;2023-01-01T00:14:34;100625.72;;;17.06;44.32
6208;BME280;3137;51.550;7.060;2023-01-01T00:17:01;100624.03;;;17.05;43.86
6208;BME280;3137;51.550;7.060;2023-01-01T00:19:27;100618.25;;;17.00;44.47
6208;BME280;3137;51.550;7.060;2023-01-01T00:21:54;100623.66;;;17.00;43.65
6208;BME280;3137;51.550;7.060;2023-01-01T00:24:20;100616.00;;;16.95;44.61
6208;BME280;3137;51.550;7.060;2023-01-01T00:26:46;100621.41;;;16.95;43.94
6208;BME280;3137;51.550;7.060;2023-01-01T00:29:13;100616.84;;;16.96;44.06
6208;BME280;3137;51.550;7.060;2023-01-01T00:31:39;100618.28;;;16.90;44.89
6208;BME280;3137;51.550;7.060;2023-01-01T00:34:06;100614.22;;;16.86;45.10
6208;BME280;3137;51.550;7.060;2023-01-01T00:36:32;100608.56;;;16.79;45.14
6208;BME280;3137;51.550;7.060;2023-01-01T00:39:00;100623.66;;;16.72;45.04
6208;BME280;3137;51.550;7.060;2023-01-01T00:41:27;100623.28;;;16.67;45.68
6208;BME280;3137;51.550;7.060;2023-01-01T00:43:53;100625.22;;;16.75;44.88
6208;BME280;3137;51.550;7.060;2023-01-01T00:46:19;100624.19;;;16.76;44.25
6208;BME280;3137;51.550;7.060;2023-01-01T00:48:46;100621.81;;;16.73;44.26
6208;BME280;3137;51.550;7.060;2023-01-01T00:51:12;100637.78;;;16.66;44.41
6208;BME280;3137;51.550;7.060;2023-01-01T00:53:39;100626.56;;;16.61;44.44
6208;BME280;3137;51.550;7.060;2023-01-01T00:56:06;100635.06;;;16.48;44.49
6208;BME280;3137;51.550;7.060;2023-01-01T00:58:33;100621.16;;;16.43;45.35
6208;BME280;3137;51.550;7.060;2023-01-01T01:00:59;100621.19;;;16.33;46.05
6208;BME280;3137;51.550;7.060;2023-01-01T01:03:26;100609.75;;;16.22;45.65
6208;BME280;3137;51.550;7.060;2023-01-01T01:05:57;100623.00;;;16.15;45.59
6208;BME280;3137;51.550;7.060;2023-01-01T01:08:26;100624.13;;;16.12;45.83
6208;BME280;3137;51.550;7.060;2023-01-01T01:11:07;100618.03;;;16.10;46.00
6208;BME280;3137;51.550;7.060;2023-01-01T01:13:34;100626.72;;;16.14;45.49
6208;BME280;3137;51.550;7.060;2023-01-01T01:16:07;100633.66;;;16.16;45.74
6208;BME280;3137;51.550;7.060;2023-01-01T01:18:33;100613.03;;;16.15;44.99
6208;BME280;3137;51.550;7.060;2023-01-01T01:21:00;100620.19;;;16.07;45.25
6208;BME280;3137;51.550;7.060;2023-01-01T01:23:26;100629.84;;;16.09;45.01
6208;BME280;3137;51.550;7.060;2023-01-01T01:25:52;100646.28;;;16.16;44.73
6208;BME280;3137;51.550;7.060;2023-01-01T01:28:19;100628.69;;;16.12;45.49
6208;BME280;3137;51.550;7.060;2023-01-01T01:30:45;100629.84;;;16.09;44.91
6208;BME280;3137;51.550;7.060;2023-01-01T01:33:12;100650.44;;;16.10;44.67
6208;BME280;3137;51.550;7.060;2023-01-01T01:35:38;100636.63;;;16.13;44.28
6208;BME280;3137;51.550;7.060;2023-01-01T01:38:04;100631.09;;;16.15;44.52
6208;BME280;3137;51.550;7.060;2023-01-01T01:40:32;100631.84;;;16.07;44.63
6208;BME280;3137;51.550;7.060;2023-01-01T01:42:58;100651.75;;;16.06;43.80
6208;BME280;3137;51.550;7.060;2023-01-01T01:45:24;100657.72;;;16.10;43.92
6208;BME280;3137;51.550;7.060;2023-01-01T01:47:58;100643.91;;;16.13;44.32
6208;BME280;3137;51.550;7.060;2023-01-01T01:50:31;100644.25;;;16.00;44.08
6208;BME280;3137;51.550;7.060;2023-01-01T01:53:12;100645.38;;;15.98;44.24
6208;BME280;3137;51.550;7.060;2023-01-01T01:55:47;100659.91;;;15.87;44.77
6208;BME280;3137;51.550;7.060;2023-01-01T01:58:14;100659.09;;;15.77;44.49
6208;BME280;3137;51.550;7.060;2023-01-01T02:00:41;100667.59;;;15.82;44.37
6208;BME280;3137;51.550;7.060;2023-01-01T02:03:10;100676.31;;;15.76;44.27
6208;BME280;3137;51.550;7.060;2023-01-01T02:05:39;100673.72;;;15.74;44.88
6208;BME280;3137;51.550;7.060;2023-01-01T02:08:07;100681.69;;;15.66;44.68
6208;BME280;3137;51.550;7.060;2023-01-01T02:10:34;100671.03;;;15.64;44.28
6208;BME280;3137;51.550;7.060;2023-01-01T02:13:00;100665.94;;;15.71;43.51
6208;BME280;3137;51.550;7.060;2023-01-01T02:15:30;100676.97;;;15.58;44.20
6208;BME280;3137;51.550;7.060;2023-01-01T02:18:09;100681.00;;;15.54;44.45
6208;BME280;3137;51.550;7.060;2023-01-01T02:21:23;100672.59;;;15.47;44.60
6208;BME280;3137;51.550;7.060;2023-01-01T02:26:16;100674.47;;;15.47;44.57
6208;BME280;3137;51.550;7.060;2023-01-01T02:29:01;100670.34;;;15.43;44.79
6208;BME280;3137;51.550;7.060;2023-01-01T02:31:35;100671.91;;;15.36;45.06
6208;BME280;3137;51.550;7.060;2023-01-01T02:34:08;100677.72;;;15.31;45.65
6208;BME280;3137;51.550;7.060;2023-01-01T02:36:42;100665.91;;;15.32;43.94
6208;BME280;3137;51.550;7.060;2023-01-01T02:39:12;100671.75;;;15.27;44.65
6208;BME280;3137;51.550;7.060;2023-01-01T02:41:43;100668.63;;;15.32;44.09
6208;BME280;3137;51.550;7.060;2023-01-01T02:44:12;100672.31;;;15.31;44.67
6208;BME280;3137;51.550;7.060;2023-01-01T02:46:38;100671.31;;;15.22;45.05
6208;BME280;3137;51.550;7.060;2023-01-01T02:49:04;100664.78;;;15.15;44.72
6208;BME280;3137;51.550;7.060;2023-01-01T02:51:56;100671.91;;;15.16;44.82
6208;BME280;3137;51.550;7.060;2023-01-01T02:54:31;100661.97;;;15.17;45.38
6208;BME280;3137;51.550;7.060;2023-01-01T02:57:07;100668.63;;;15.13;44.67
6208;BME280;3137;51.550;7.060;2023-01-01T03:00:00;100666.94;;;15.12;44.85
6208;BME280;3137;51.550;7.060;2023-01-01T03:03:06;100681.69;;;15.07;45.26
6208;BME280;3137;51.550;7.060;2023-01-01T03:05:52;100671.03;;;15.06;45.64
6208;BME280;3137;51.550;7.060;2023-01-01T03:11:39;100685.50;;;15.05;45.33
6208;BME280;3137;51.550;7.060;2023-01-01T03:14:20;100692.03;;;15.02;45.29
6208;BME280;3137;51.550;7.060;2023-01-01T03:16:54;100706.78;;;14.98;45.79
6208;BME280;3137;51.550;7.060;2023-01-01T03:19:25;100704.25;;;14.97;45.67
6208;BME280;3137;51.550;7.060;2023-01-01T03:22:06;100704.38;;;14.95;45.54
6208;BME280;3137;51.550;7.060;2023-01-01T03:24:49;100695.00;;;14.89;45.88
6208;BME280;3137;51.550;7.060;2023-01-01T03:27:19;100698.13;;;14.95;45.71
6208;BME280;3137;51.550;7.060;2023-01-01T03:29:50;100701.81;;;14.94;46.53
6208;BME280;3137;51.550;7.060;2023-01-01T03:32:30;100701.69;;;14.95;45.75
6208;BME280;3137;51.550;7.060;2023-01-01T03:35:18;100696.72;;;14.91;45.85
6208;BME280;3137;51.550;7.060;2023-01-01T03:37:49;100704.38;;;14.85;46.53
6208;BME280;3137;51.550;7.060;2023-01-01T03:40:18;100701.78;;;14.84;46.12
6208;BME280;3137;51.550;7.060;2023-01-01T03:42:53;100700.00;;;14.94;46.07
6208;BME280;3137;51.550;7.060;2023-01-01T03:45:24;100707.22;;;14.94;45.97
6208;BME280;3137;51.550;7.060;2023-01-01T03:47:54;100710.59;;;14.86;46.97
6208;BME280;3137;51.550;7.060;2023-01-01T03:50:23;100715.72;;;14.89;46.99
6208;BME280;3137;51.550;7.060;2023-01-01T03:53:04;100725.13;;;14.95;46.56
6208;BME280;3137;51.550;7.060;2023-01-01T03:55:40;100732.19;;;14.96;46.80
6208;BME280;3137;51.550;7.060;2023-01-01T03:58:20;100736.63;;;14.97;46.57
6208;BME280;3137;51.550;7.060;2023-01-01T04:00:55;100723.38;;;14.94;46.88
6208;BME280;3137;51.550;7.060;2023-01-01T04:03:25;100729.19;;;14.89;47.07
6208;BME280;3137;51.550;7.060;2023-01-01T04:05:52;100723.38;;;14.94;46.97
6208;BME280;3137;51.550;7.060;2023-01-01T04:08:19;100728.66;;;14.95;46.91
6208;BME280;3137;51.550;7.060;2023-01-01T04:10:50;100723.53;;;14.92;47.42
6208;BME280;3137;51.550;7.060;2023-01-01T04:13:18;100740.13;;;14.87;47.81
6208;BME280;3137;51.550;7.060;2023-01-01T04:15:45;100760.16;;;14.85;48.23
6208;BME280;3137;51.550;7.060;2023-01-01T04:18:11;100745.94;;;14.83;48.41
6208;BME280;3137;51.550;7.060;2023-01-01T04:20:38;100752.75;;;14.77;48.80
6208;BME280;3137;51.550;7.060;2023-01-01T04:23:04;100748.88;;;14.70;48.60
6208;BME280;3137;51.550;7.060;2023-01-01T04:25:31;100757.81;;;14.71;49.00
6208;BME280;3137;51.550;7.060;2023-01-01T04:27:57;100741.38;;;14.74;48.86
6208;BME280;3137;51.550;7.060;2023-01-01T04:30:24;100759.72;;;14.80;48.82
6208;BME280;3137;51.550;7.060;2023-01-01T04:32:53;100766.50;;;14.84;48.80
6208;BME280;3137;51.550;7.060;2023-01-01T04:35:19;100739.97;;;14.79;48.33
6208;BME280;3137;51.550;7.060;2023-01-01T04:37:47;100751.75;;;14.78;48.59
6208;BME280;3137;51.550;7.060;2023-01-01T04:40:13;100753.31;;;14.81;49.20
6208;BME280;3137;51.550;7.060;2023-01-01T04:42:40;100759.56;;;14.81;49.36
6208;BME280;3137;51.550;7.060;2023-01-01T04:45:07;100771.91;;;14.84;49.50
6208;BME280;3137;51.550;7.060;2023-01-01T04:47:33;100769.22;;;14.84;49.03
6208;BME280;3137;51.550;7.060;2023-01-01T04:50:00;100779.03;;;14.85;49.43
6208;BME280;3137;51.550;7.060;2023-01-01T04:52:26;100783.69;;;14.83;49.79
6208;BME280;3137;51.550;7.060;2023-01-01T04:54:53;100793.78;;;14.91;50.15
6208;BME280;3137;51.550;7.060;2023-01-01T04:57:19;100788.84;;;14.96;50.38
6208;BME280;3137;51.550;7.060;2023-01-01T04:59:45;100782.72;;;14.94;50.57
6208;BME280;3137;51.550;7.060;2023-01-01T05:02:12;100778.47;;;14.91;51.44
6208;BME280;3137;51.550;7.060;2023-01-01T05:04:38;100764.81;;;14.83;51.18
6208;BME280;3137;51.550;7.060;2023-01-01T05:07:05;100777.16;;;14.85;51.06
6208;BME280;3137;51.550;7.060;2023-01-01T05:09:31;100785.38;;;14.84;50.52
6208;BME280;3137;51.550;7.060;2023-01-01T05:11:57;100790.06;;;14.82;51.68
6208;BME280;3137;51.550;7.060;2023-01-01T05:14:25;100797.50;;;14.89;51.59
6208;BME280;3137;51.550;7.060;2023-01-01T05:16:51;100782.72;;;14.94;51.47
6208;BME280;3137;51.550;7.060;2023-01-01T05:19:18;100780.44;;;14.89;51.17
6208;BME280;3137;51.550;7.060;2023-01-01T05:21:44;100779.47;;;14.90;51.77
6208;BME280;3137;51.550;7.060;2023-01-01T05:24:11;100767.81;;;14.89;50.96
6208;BME280;3137;51.550;7.060;2023-01-01T05:26:41;100774.91;;;14.91;51.33
6208;BME280;3137;51.550;7.060;2023-01-01T05:29:07;100776.47;;;14.93;51.03
6208;BME280;3137;51.550;7.060;2023-01-01T05:31:42;100764.97;;;14.91;51.25
6208;BME280;3137;51.550;7.060;2023-01-01T05:34:09;100764.97;;;14.91;50.52
6208;BME280;3137;51.550;7.060;2023-01-01T05:36:36;100776.88;;;14.88;51.35
6208;BME280;3137;51.550;7.060;2023-01-01T05:39:05;100789.25;;;14.91;51.39
6208;BME280;3137;51.550;7.060;2023-01-01T05:41:32;100795.47;;;14.92;51.12
6208;BME280;3137;51.550;7.060;2023-01-01T05:44:03;100804.44;;;14.92;51.30
6208;BME280;3137;51.550;7.060;2023-01-01T05:46:30;100806.16;;;14.93;51.82
6208;BME280;3137;51.550;7.060;2023-01-01T05:48:57;100811.66;;;14.92;51.95
6208;BME280;3137;51.550;7.060;2023-01-01T05:51:25;100809.13;;;14.90;51.98
6208;BME280;3137;51.550;7.060;2023-01-01T05:53:53;100808.56;;;14.96;51.24
6208;BME280;3137;51.550;7.060;2023-01-01T05:56:20;100809.69;;;14.94;50.76
6208;BME280;3137;51.550;7.060;2023-01-01T05:58:47;100815.09;;;14.94;51.09
6208;BME280;3137;51.550;7.060;2023-01-01T06:01:22;100835.81;;;14.93;51.94
6208;BME280;3137;51.550;7.060;2023-01-01T06:03:50;100836.66;;;14.94;51.26
6208;BME280;3137;51.550;7.060;2023-01-01T06:06:19;100842.66;;;14.97;51.88
6208;BME280;3137;51.550;7.060;2023-01-01T06:08:53;100831.94;;;14.86;52.53
6208;BME280;3137;51.550;7.060;2023-01-01T06:11:19;100830.78;;;14.79;52.95
6208;BME280;3137;51.550;7.060;2023-01-01T06:13:46;100845.50;;;14.75;52.61
6208;BME280;3137;51.550;7.060;2023-01-01T06:16:13;100846.91;;;14.69;52.46
6208;BME280;3137;51.550;7.060;2023-01-01T06:18:40;100854.56;;;14.64;53.42
6208;BME280;3137;51.550;7.060;2023-01-01T06:21:18;100860.84;;;14.74;52.68
6208;BME280;3137;51.550;7.060;2023-01-01T06:23:45;100844.09;;;14.71;53.13
6208;BME280;3137;51.550;7.060;2023-01-01T06:26:12;100858.88;;;14.76;52.71
6208;BME280;3137;51.550;7.060;2023-01-01T06:28:40;100868.53;;;14.79;52.37
6208;BME280;3137;51.550;7.060;2023-01-01T06:31:08;100876.63;;;14.79;52.19
6208;BME280;3137;51.550;7.060;2023-01-01T06:33:35;100875.06;;;14.76;52.40
6208;BME280;3137;51.550;7.060;2023-01-01T06:36:04;100879.91;;;14.82;52.76
6208;BME280;3137;51.550;7.060;2023-01-01T06:38:32;100885.16;;;14.84;53.21
6208;BME280;3137;51.550;7.060;2023-01-01T06:41:03;100874.94;;;14.78;52.38
6208;BME280;3137;51.550;7.060;2023-01-01T06:43:31;100886.28;;;14.81;52.56
6208;BME280;3137;51.550;7.060;2023-01-01T06:46:14;100894.66;;;14.78;52.21
6208;BME280;3137;51.550;7.060;2023-01-01T06:48:41;100894.13;;;14.84;52.11
6208;BME280;3137;51.550;7.060;2023-01-01T06:51:10;100899.66;;;14.83;52.34
6208;BME280;3137;51.550;7.060;2023-01-01T06:53:37;100914.66;;;14.76;52.61
6208;BME280;3137;51.550;7.060;2023-01-01T06:56:04;100900.31;;;14.75;52.54
6208;BME280;3137;51.550;7.060;2023-01-01T06:58:30;100908.13;;;14.78;53.15
6208;BME280;3137;51.550;7.060;2023-01-01T07:01:14;100913.66;;;14.77;53.33
6208;BME280;3137;51.550;7.060;2023-01-01T07:03:42;100894.00;;;14.65;54.73
6208;BME280;3137;51.550;7.060;2023-01-01T07:06:09;100910.97;;;14.56;55.29
6208;BME280;3137;51.550;7.060;2023-01-01T07:08:36;100910.47;;;14.51;56.49
6208;BME280;3137;51.550;7.060;2023-01-01T07:11:04;100919.47;;;14.40;56.53
6208;BME280;3137;51.550;7.060;2023-01-01T07:13:30;100906.13;;;14.38;56.52
6208;BME280;3137;51.550;7.060;2023-01-01T07:15:58;100935.91;;;14.37;56.34
6208;BME280;3137;51.550;7.060;2023-01-01T07:18:24;100923.28;;;14.37;55.32
6208;BME280;3137;51.550;7.060;2023-01-01T07:21:02;100943.38;;;14.33;56.44
6208;BME280;3137;51.550;7.060;2023-01-01T07:23:32;100940.31;;;14.38;56.92
6208;BME280;3137;51.550;7.060;2023-01-01T07:25:58;100940.97;;;14.30;57.29
6208;BME280;3137;51.550;7.060;2023-01-01T07:28:26;100945.44;;;14.41;57.71
6208;BME280;3137;51.550;7.060;2023-01-01T07:30:52;100947.81;;;14.34;57.94
6208;BME280;3137;51.550;7.060;2023-01-01T07:33:21;100959.59;;;14.22;58.48
6208;BME280;3137;51.550;7.060;2023-01-01T07:35:48;100966.09;;;14.19;58.56
6208;BME280;3137;51.550;7.060;2023-01-01T07:38:15;100969.81;;;14.07;59.92
6208;BME280;3137;51.550;7.060;2023-01-01T07:40:41;100977.28;;;14.03;60.89
6208;BME280;3137;51.550;7.060;2023-01-01T07:43:08;100990.88;;;13.91;62.34
6208;BME280;3137;51.550;7.060;2023-01-01T07:45:35;100982.13;;;13.77;63.21
6208;BME280;3137;51.550;7.060;2023-01-01T07:48:01;100988.50;;;13.65;64.50
6208;BME280;3137;51.550;7.060;2023-01-01T07:50:30;100982.25;;;13.53;65.21
6208;BME280;3137;51.550;7.060;2023-01-01T07:52:57;100984.47;;;13.48;65.14
6208;BME280;3137;51.550;7.060;2023-01-01T07:55:24;100991.19;;;13.43;65.91
6208;BME280;3137;51.550;7.060;2023-01-01T07:57:50;101001.19;;;13.40;66.77
6208;BME280;3137;51.550;7.060;2023-01-01T08:00:19;100997.56;;;13.42;66.43
6208;BME280;3137;51.550;7.060;2023-01-01T08:02:46;100993.28;;;13.39;66.52
6208;BME280;3137;51.550;7.060;2023-01-01T08:05:13;101015.41;;;13.43;66.01
6208;BME280;3137;51.550;7.060;2023-01-01T08:07:39;101023.72;;;13.39;66.27
6208;BME280;3137;51.550;7.060;2023-01-01T08:10:06;101020.53;;;13.34;67.00
6208;BME280;3137;51.550;7.060;2023-01-01T08:12:33;101011.63;;;13.34;66.70
6208;BME280;3137;51.550;7.060;2023-01-01T08:14:59;101018.94;;;13.32;67.92
6208;BME280;3137;51.550;7.060;2023-01-01T08:17:25;101032.75;;;13.27;67.48
6208;BME280;3137;51.550;7.060;2023-01-01T08:19:52;101047.81;;;13.30;67.37
6208;BME280;3137;51.550;7.060;2023-01-01T08:22:18;101045.97;;;13.30;67.26
6208;BME280;3137;51.550;7.060;2023-01-01T08:24:45;101045.09;;;13.30;67.60
6208;BME280;3137;51.550;7.060;2023-01-01T08:27:13;101043.41;;;13.40;67.18
6208;BME280;3137;51.550;7.060;2023-01-01T08:29:39;101044.88;;;13.44;65.79
6208;BME280;3137;51.550;7.060;2023-01-01T08:32:08;101036.94;;;13.54;65.36
6208;BME280;3137;51.550;7.060;2023-01-01T08:34:35;101038.41;;;13.58;65.29
6208;BME280;3137;51.550;7.060;2023-01-01T08:37:01;101048.19;;;13.59;65.27
6208;BME280;3137;51.550;7.060;2023-01-01T08:39:28;101047.44;;;13.57;65.08
6208;BME280;3137;51.550;7.060;2023-01-01T08:41:55;101064.22;;;13.60;64.63
6208;BME280;3137;51.550;7.060;2023-01-01T08:44:21;101068.25;;;13.66;64.73
6208;BME280;3137;51.550;7.060;2023-01-01T08:46:48;101074.84;;;13.62;64.94
6208;BME280;3137;51.550;7.060;2023-01-01T08:49:14;101084.03;;;13.71;63.57
6208;BME280;3137;51.550;7.060;2023-01-01T08:51:41;101078.53;;;13.72;64.14
6208;BME280;3137;51.550;7.060;2023-01-01T08:54:07;101088.56;;;13.70;64.34
6208;BME280;3137;51.550;7.060;2023-01-01T08:56:34;101074.75;;;13.75;63.82
6208;BME280;3137;51.550;7.060;2023-01-01T08:59:02;101090.75;;;13.76;65.12
6208;BME280;3137;51.550;7.060;2023-01-01T09:01:30;101098.50;;;13.70;64.30
6208;BME280;3137;51.550;7.060;2023-01-01T09:03:56;101088.06;;;13.76;64.25
6208;BME280;3137;51.550;7.060;2023-01-01T09:06:23;101101.53;;;13.76;64.00
6208;BME280;3137;51.550;7.060;2023-01-01T09:08:49;101108.66;;;13.77;64.10
6208;BME280;3137;51.550;7.060;2023-01-01T09:11:21;101121.75;;;13.82;64.23
6208;BME280;3137;51.550;7.060;2023-01-01T09:13:48;101124.19;;;13.85;63.74
6208;BME280;3137;51.550;7.060;2023-01-01T09:16:15;101128.56;;;13.86;62.87
6208;BME280;3137;51.550;7.060;2023-01-01T09:18:41;101127.13;;;13.82;63.92
6208;BME280;3137;51.550;7.060;2023-01-01T09:21:08;101129.31;;;13.88;64.17
6208;BME280;3137;51.550;7.060;2023-01-01T09:23:34;101133.97;;;13.86;64.07
6208;BME280;3137;51.550;7.060;2023-01-01T09:26:03;101124.19;;;13.85;64.32
6208;BME280;3137;51.550;7.060;2023-01-01T09:28:30;101129.56;;;13.85;64.14
6208;BME280;3137;51.550;7.060;2023-01-01T09:30:56;101135.59;;;13.89;63.76
6208;BME280;3137;51.550;7.060;2023-01-01T09:33:23;101134.69;;;13.88;64.19
6208;BME280;3137;51.550;7.060;2023-01-01T09:35:49;101134.59;;;13.90;64.03
6208;BME280;3137;51.550;7.060;2023-01-01T09:38:16;101137.19;;;13.91;63.45
6208;BME280;3137;51.550;7.060;2023-01-01T09:41:13;101135.94;;;13.95;62.78
6208;BME280;3137;51.550;7.060;2023-01-01T09:46:16;101146.34;;;13.89;64.07
6208;BME280;3137;51.550;7.060;2023-01-01T09:48:55;101157.97;;;13.89;63.98
6208;BME280;3137;51.550;7.060;2023-01-01T09:51:26;101153.56;;;13.88;64.34
6208;BME280;3137;51.550;7.060;2023-01-01T09:54:04;101150.63;;;13.91;63.93
6208;BME280;3137;51.550;7.060;2023-01-01T09:56:33;101148.53;;;13.95;63.65
6208;BME280;3137;51.550;7.060;2023-01-01T09:59:01;101155.66;;;13.96;63.64
6208;BME280;3137;51.550;7.060;2023-01-01T10:01:52;101150.38;;;13.94;63.52
6208;BME280;3137;51.550;7.060;2023-01-01T10:05:27;101172.41;;;13.99;63.23
6208;BME280;3137;51.550;7.060;2023-01-01T10:16:03;101179.16;;;14.05;63.48
6208;BME280;3137;51.550;7.060;2023-01-01T10:18:35;101181.34;;;14.00;63.85
6208;BME280;3137;51.550;7.060;2023-01-01T10:21:39;101162.63;;;13.98;63.83
6208;BME280;3137;51.550;7.060;2023-01-01T10:24:23;101154.03;;;13.93;63.68
6208;BME280;3137;51.550;7.060;2023-01-01T10:26:54;101158.22;;;13.97;63.87
6208;BME280;3137;51.550;7.060;2023-01-01T10:29:58;101158.09;;;13.99;64.10
6208;BME280;3137;51.550;7.060;2023-01-01T10:32:27;101153.81;;;14.08;63.94
6208;BME280;3137;51.550;7.060;2023-01-01T10:34:54;101149.53;;;14.05;63.65
6208;BME280;3137;51.550;7.060;2023-01-01T10:37:21;101150.88;;;14.11;63.39
6208;BME280;3137;51.550;7.060;2023-01-01T10:39:48;101155.28;;;14.12;63.08
6208;BME280;3137;51.550;7.060;2023-01-01T10:42:15;101152.34;;;14.15;63.70
6208;BME280;3137;51.550;7.060;2023-01-01T10:44:42;101146.09;;;14.14;63.75
6208;BME280;3137;51.550;7.060;2023-01-01T10:47:33;101155.53;;;14.09;63.65
6208;BME280;3137;51.550;7.060;2023-01-01T10:50:03;101149.16;;;14.10;63.27
6208;BME280;3137;51.550;7.060;2023-01-01T10:52:38;101135.69;;;14.10;63.79
6208;BME280;3137;51.550;7.060;2023-01-01T10:55:19;101134.47;;;14.14;63.36
6208;BME280;3137;51.550;7.060;2023-01-01T10:57:46;101139.97;;;14.12;62.87
6208;BME280;3137;51.550;7.060;2023-01-01T11:00:25;101141.56;;;14.15;63.61
6208;BME280;3137;51.550;7.060;2023-01-01T11:03:11;101146.47;;;14.21;63.57
6208;BME280;3137;51.550;7.060;2023-01-01T11:05:39;101148.91;;;14.24;63.15
6208;BME280;3137;51.550;7.060;2023-01-01T11:08:16;101143.28;;;14.27;63.27
6208;BME280;3137;51.550;7.060;2023-01-01T11:10:49;101151.22;;;14.29;63.32
6208;BME280;3137;51.550;7.060;2023-01-01T11:13:18;101154.28;;;14.35;63.33
6208;BME280;3137;51.550;7.060;2023-01-01T11:15:45;101156.13;;;14.35;62.84
6208;BME280;3137;51.550;7.060;2023-01-01T11:20:53;101172.91;;;14.38;63.28
6208;BME280;3137;51.550;7.060;2023-01-01T11:25:57;101169.97;;;14.41;62.58
6208;BME280;3137;51.550;7.060;2023-01-01T11:28:24;101175.97;;;14.45;62.39
6208;BME280;3137;51.550;7.060;2023-01-01T11:31:09;101179.13;;;14.50;61.58
6208;BME280;3137;51.550;7.060;2023-01-01T11:33:49;101176.81;;;14.45;61.74
6208;BME280;3137;51.550;7.060;2023-01-01T11:36:23;101182.56;;;14.52;62.22
6208;BME280;3137;51.550;7.060;2023-01-01T11:39:06;101205.25;;;14.50;62.76
6208;BME280;3137;51.550;7.060;2023-01-01T11:41:59;101189.94;;;14.61;62.37
6208;BME280;3137;51.550;7.060;2023-01-01T11:44:38;101181.84;;;14.61;61.14
6208;BME280;3137;51.550;7.060;2023-01-01T11:47:06;101185.78;;;14.57;62.38
6208;BME280;3137;51.550;7.060;2023-01-01T11:49:46;101195.06;;;14.64;62.54
6208;BME280;3137;51.550;7.060;2023-01-01T11:52:37;101194.50;;;14.61;60.92
6208;BME280;3137;51.550;7.060;2023-01-01T11:58:03;101199.13;;;14.59;61.81
6208;BME280;3137;51.550;7.060;2023-01-01T12:00:40;101193.00;;;14.57;62.36
6208;BME280;3137;51.550;7.060;2023-01-01T12:03:36;101195.72;;;14.57;61.96
6208;BME280;3137;51.550;7.060;2023-01-01T12:06:10;101195.97;;;14.54;61.92
6208;BME280;3137;51.550;7.060;2023-01-01T12:08:45;101197.41;;;14.58;61.44
6208;BME280;3137;51.550;7.060;2023-01-01T12:11:31;101189.81;;;14.52;61.86
6208;BME280;3137;51.550;7.060;2023-01-01T12:14:28;101187.72;;;14.55;61.83
6208;BME280;3137;51.550;7.060;2023-01-01T12:17:31;101169.59;;;14.57;61.83
6208;BME280;3137;51.550;7.060;2023-01-01T12:22:47;101166.28;;;14.42;61.36
6208;BME280;3137;51.550;7.060;2023-01-01T12:25:15;101174.84;;;14.47;61.50
6208;BME280;3137;51.550;7.060;2023-01-01T12:30:44;101168.25;;;14.52;61.41
6208;BME280;3137;51.550;7.060;2023-01-01T12:36:49;101168.75;;;14.57;61.34
6208;BME280;3137;51.550;7.060;2023-01-01T12:39:47;101169.88;;;14.54;61.28
6208;BME280;3137;51.550;7.060;2023-01-01T12:45:48;101174.97;;;14.46;61.63
6208;BME280;3137;51.550;7.060;2023-01-01T12:48:36;101172.53;;;14.43;60.98
6208;BME280;3137;51.550;7.060;2023-01-01T12:51:38;101174.00;;;14.47;61.16
6208;BME280;3137;51.550;7.060;2023-01-01T12:59:44;101168.88;;;14.44;60.96
6208;BME280;3137;51.550;7.060;2023-01-01T13:02:17;101171.94;;;14.39;61.00
6208;BME280;3137;51.550;7.060;2023-01-01T13:04:46;101174.16;;;14.34;61.99
6208;BME280;3137;51.550;7.060;2023-01-01T13:07:22;101183.44;;;14.30;62.31
6208;BME280;3137;51.550;7.060;2023-01-01T13:09:50;101176.59;;;14.37;61.26
6208;BME280;3137;51.550;7.060;2023-01-01T13:12:20;101184.69;;;14.37;61.21
6208;BME280;3137;51.550;7.060;2023-01-01T13:14:50;101176.69;;;14.36;61.96
6208;BME280;3137;51.550;7.060;2023-01-01T13:17:19;101176.34;;;14.40;61.60
6208;BME280;3137;51.550;7.060;2023-01-01T13:22:40;101185.25;;;14.41;61.47
6208;BME280;3137;51.550;7.060;2023-01-01T13:33:21;101193.72;;;14.14;61.48
6208;BME280;3137;51.550;7.060;2023-01-01T13:46:41;101197.63;;;14.10;61.97
6208;BME280;3137;51.550;7.060;2023-01-01T13:52:31;101188.81;;;14.08;62.09
6208;BME280;3137;51.550;7.060;2023-01-01T13:58:24;101203.88;;;13.99;63.00
6208;BME280;3137;51.550;7.060;2023-01-01T14:03:52;101190.88;;;13.93;62.14
6208;BME280;3137;51.550;7.060;2023-01-01T14:06:33;101193.94;;;13.88;62.14
6208;BME280;3137;51.550;7.060;2023-01-01T14:09:13;101187.25;;;13.94;61.81
6208;BME280;3137;51.550;7.060;2023-01-01T14:11:40;101188.09;;;13.94;61.92
6208;BME280;3137;51.550;7.060;2023-01-01T14:16:51;101185.50;;;13.81;62.09
6208;BME280;3137;51.550;7.060;2023-01-01T14:19:17;101185.97;;;13.75;62.56
6208;BME280;3137;51.550;7.060;2023-01-01T14:21:45;101197.59;;;13.76;61.94
6208;BME280;3137;51.550;7.060;2023-01-01T14:24:15;101203.47;;;13.70;62.42
6208;BME280;3137;51.550;7.060;2023-01-01T14:26:43;101201.97;;;13.66;62.48
6208;BME280;3137;51.550;7.060;2023-01-01T14:29:17;101204.03;;;13.62;62.79
6208;BME280;3137;51.550;7.060;2023-01-01T14:31:45;101205.63;;;13.65;62.89
6208;BME280;3137;51.550;7.060;2023-01-01T14:36:58;101216.78;;;13.60;62.56
6208;BME280;3137;51.550;7.060;2023-01-01T14:39:27;101206.03;;;13.60;61.87
6208;BME280;3137;51.550;7.060;2023-01-01T14:41:58;101209.31;;;13.64;62.31
6208;BME280;3137;51.550;7.060;2023-01-01T14:44:33;101214.44;;;13.67;62.35
6208;BME280;3137;51.550;7.060;2023-01-01T14:47:02;101216.03;;;13.58;62.06
6208;BME280;3137;51.550;7.060;2023-01-01T14:49:32;101216.66;;;13.61;61.94
6208;BME280;3137;51.550;7.060;2023-01-01T14:52:02;101224.84;;;13.60;62.15